Time;durP1;ratioP1;P1;durP2;ratioP2;P2;SDS_P1;SDS_P2;PMS_P1;PMS_P2;Temp;Humidity;BMP_temperature;BMP_pressure;BME280_temperature;BME280_humidity;BME280_pressure;Samples;Min_cycle;Max_cycle;Signal;HPM_P1;HPM_P2
2024/02/26 00:02:16;;;;;;;10.23;5.10;;;28.00;65.60;;;;;;5051566;28;20179;-75
2024/02/26 00:04:44;;;;;;;9.93;4.63;;;27.80;65.50;;;;;;5030123;28;20630;-73
2024/02/26 00:07:13;;;;;;;9.47;3.97;;;27.80;65.60;;;;;;5050633;28;20260;-75
2024/02/26 00:09:44;;;;;;;13.37;4.40;;;27.70;64.00;;;;;;5045531;28;20192;-78
2024/02/26 00:12:14;;;;;;;8.23;3.40;;;27.90;64.50;;;;;;5049633;28;20215;-74
2024/02/26 00:14:44;;;;;;;10.13;4.27;;;27.80;63.30;;;;;;5046535;28;20272;-72
2024/02/26 00:17:12;;;;;;;10.27;4.17;;;27.90;63.60;;;;;;5050388;28;20184;-71
2024/02/26 00:19:40;;;;;;;14.87;3.93;;;28.10;62.70;;;;;;5048069;28;20184;-72
2024/02/26 00:22:08;;;;;;;12.23;4.70;;;28.30;63.80;;;;;;5048574;28;20209;-71
2024/02/26 00:24:37;;;;;;;10.53;3.90;;;28.30;65.40;;;;;;5045563;28;20184;-73
2024/02/26 00:27:04;;;;;;;9.73;4.20;;;28.10;65.10;;;;;;5048519;28;20232;-73
2024/02/26 00:29:32;;;;;;;10.73;4.43;;;27.80;66.10;;;;;;5049249;28;20236;-74
2024/02/26 00:31:59;;;;;;;8.77;4.27;;;27.90;67.80;;;;;;5051277;28;20212;-75
2024/02/26 00:34:29;;;;;;;8.20;4.17;;;27.80;67.90;;;;;;5046709;28;20180;-73
2024/02/26 00:36:56;;;;;;;11.00;4.30;;;27.80;66.00;;;;;;5049873;28;20180;-73
2024/02/26 00:39:25;;;;;;;10.17;3.70;;;27.80;65.90;;;;;;5046102;28;20186;-73
2024/02/26 00:41:52;;;;;;;7.33;3.67;;;27.80;65.90;;;;;;5029026;28;20190;-75
2024/02/26 00:44:20;;;;;;;5.83;3.00;;;27.90;65.30;;;;;;5041650;28;20668;-72
2024/02/26 00:46:47;;;;;;;11.03;3.50;;;28.00;65.00;;;;;;5047331;28;20207;-74
2024/02/26 00:49:14;;;;;;;8.47;3.40;;;27.80;65.50;;;;;;5046073;28;20303;-76
2024/02/26 00:51:44;;;;;;;10.07;3.37;;;27.60;65.50;;;;;;5047454;28;20180;-75
2024/02/26 00:54:12;;;;;;;13.53;3.30;;;27.20;67.90;;;;;;5047732;28;20283;-74
2024/02/26 00:56:40;;;;;;;10.77;2.93;;;26.90;68.60;;;;;;5040079;28;20192;-74
2024/02/26 00:59:07;;;;;;;7.17;2.70;;;27.00;66.60;;;;;;5046053;28;20202;-74
2024/02/26 01:01:35;;;;;;;10.07;2.97;;;27.20;67.00;;;;;;5047572;28;20203;-74
2024/02/26 01:04:03;;;;;;;12.40;2.77;;;27.30;66.50;;;;;;5049179;28;20192;-72
2024/02/26 01:06:30;;;;;;;10.37;3.47;;;27.00;68.30;;;;;;5048832;28;20277;-75
2024/02/26 01:08:57;;;;;;;12.13;3.40;;;27.10;70.20;;;;;;5047567;28;20180;-74
2024/02/26 01:11:27;;;;;;;9.47;3.10;;;27.00;70.70;;;;;;5046340;28;20237;-76
2024/02/26 01:13:56;;;;;;;11.57;3.20;;;27.00;71.00;;;;;;5047254;28;20187;-76
2024/02/26 01:16:24;;;;;;;10.13;3.43;;;26.70;70.90;;;;;;5046562;28;20210;-75
2024/02/26 01:18:51;;;;;;;9.53;3.50;;;26.70;72.00;;;;;;5050048;28;20539;-75
2024/02/26 01:21:19;;;;;;;11.30;3.70;;;26.70;70.80;;;;;;5048668;28;20220;-77
2024/02/26 01:23:46;;;;;;;8.07;3.70;;;26.50;71.70;;;;;;5046690;28;20187;-75
2024/02/26 01:26:13;;;;;;;16.17;4.13;;;26.80;70.80;;;;;;5045691;28;20220;-75
2024/02/26 01:28:44;;;;;;;11.77;3.47;;;27.30;69.70;;;;;;5042397;28;20771;-75
2024/02/26 01:31:11;;;;;;;11.13;3.83;;;27.70;68.80;;;;;;5047566;28;20194;-77
2024/02/26 01:33:46;;;;;;;12.77;4.03;;;27.70;67.70;;;;;;5047036;28;20214;-77
2024/02/26 01:36:15;;;;;;;11.13;3.73;;;27.40;66.90;;;;;;5046466;28;20206;-77
2024/02/26 01:38:42;;;;;;;9.63;3.87;;;27.30;67.50;;;;;;5027063;28;20254;-74
2024/02/26 01:41:10;;;;;;;11.60;3.53;;;27.30;68.40;;;;;;5028438;28;20267;-76
2024/02/26 01:43:37;;;;;;;11.53;4.13;;;27.40;68.10;;;;;;5047563;28;20642;-74
2024/02/26 01:46:11;;;;;;;11.97;3.90;;;27.40;67.40;;;;;;5028962;28;20231;-74
2024/02/26 01:48:38;;;;;;;9.07;3.50;;;27.50;67.50;;;;;;5047222;28;20176;-74
2024/02/26 01:51:06;;;;;;;9.27;3.37;;;28.10;66.50;;;;;;5037710;28;20658;-74
2024/02/26 01:53:34;;;;;;;9.33;3.27;;;28.40;65.10;;;;;;5045353;28;20242;-74
2024/02/26 01:56:02;;;;;;;8.20;3.43;;;28.40;65.20;;;;;;5044069;28;20215;-73
2024/02/26 01:58:30;;;;;;;14.03;3.23;;;27.90;66.40;;;;;;5045790;28;20722;-73
2024/02/26 02:00:59;;;;;;;13.37;3.70;;;27.80;67.90;;;;;;5043981;28;20259;-74
2024/02/26 02:03:27;;;;;;;14.33;4.23;;;28.10;66.50;;;;;;5045150;28;20246;-75
2024/02/26 02:05:54;;;;;;;12.83;4.60;;;28.30;66.60;;;;;;5043715;28;20652;-73
2024/02/26 02:08:23;;;;;;;13.57;4.37;;;27.90;67.00;;;;;;5043385;28;20188;-75
2024/02/26 02:10:51;;;;;;;13.83;4.37;;;27.10;69.10;;;;;;5043818;28;20544;-73
2024/02/26 02:13:18;;;;;;;15.53;4.70;;;27.00;70.70;;;;;;5046338;28;20568;-78
2024/02/26 02:15:46;;;;;;;12.77;4.57;;;27.20;70.50;;;;;;5046628;28;20242;-77
2024/02/26 02:18:14;;;;;;;10.03;4.20;;;27.10;70.20;;;;;;5031836;28;20662;-72
2024/02/26 02:20:42;;;;;;;12.03;4.20;;;27.20;70.10;;;;;;5049735;28;20183;-75
2024/02/26 02:23:10;;;;;;;11.03;4.80;;;27.10;71.00;;;;;;5033731;28;22152;-73
2024/02/26 02:25:37;;;;;;;13.37;4.80;;;27.20;70.30;;;;;;5050842;28;20225;-72
2024/02/26 02:28:06;;;;;;;11.40;4.83;;;27.30;69.40;;;;;;5051374;28;20324;-74
2024/02/26 02:30:35;;;;;;;10.57;4.50;;;27.60;69.10;;;;;;5049252;28;20184;-75
2024/02/26 02:33:04;;;;;;;12.77;4.57;;;27.70;68.20;;;;;;5048745;28;20707;-74
2024/02/26 02:35:31;;;;;;;10.23;4.73;;;27.70;68.70;;;;;;5033738;28;20744;-75
2024/02/26 02:37:59;;;;;;;11.23;5.00;;;27.60;69.10;;;;;;5051646;28;20184;-74
2024/02/26 02:40:26;;;;;;;9.77;4.33;;;27.70;68.10;;;;;;5051053;28;20191;-76
2024/02/26 02:42:53;;;;;;;9.37;4.50;;;27.60;68.30;;;;;;5050431;28;20187;-77
2024/02/26 02:45:23;;;;;;;9.27;4.60;;;27.20;68.90;;;;;;5049902;28;20191;-73
2024/02/26 02:47:51;;;;;;;8.90;5.07;;;27.00;69.50;;;;;;5051491;28;20298;-74
2024/02/26 02:50:18;;;;;;;10.53;6.00;;;27.10;70.10;;;;;;5047532;28;20188;-74
2024/02/26 02:52:46;;;;;;;8.87;4.97;;;27.20;69.80;;;;;;5045491;28;20604;-73
2024/02/26 02:55:14;;;;;;;13.67;6.00;;;26.90;69.60;;;;;;5034543;28;20184;-74
2024/02/26 02:57:42;;;;;;;15.13;6.10;;;26.70;70.30;;;;;;5051110;28;20184;-72
2024/02/26 03:00:13;;;;;;;11.97;5.73;;;26.80;70.50;;;;;;5047746;28;20188;-74
2024/02/26 03:02:40;;;;;;;14.77;6.03;;;26.70;70.60;;;;;;5051576;28;20191;-73
2024/02/26 03:05:09;;;;;;;12.37;6.70;;;26.60;71.00;;;;;;5047606;28;20701;-74
2024/02/26 03:07:36;;;;;;;14.57;6.43;;;26.30;71.70;;;;;;5030048;28;20222;-73
2024/02/26 03:10:05;;;;;;;11.27;6.57;;;26.30;71.50;;;;;;5049655;28;20172;-74
2024/02/26 03:12:34;;;;;;;11.30;6.67;;;26.10;72.80;;;;;;5047782;28;20191;-75
2024/02/26 03:15:02;;;;;;;15.93;7.53;;;26.00;72.70;;;;;;5047826;28;20235;-73
2024/02/26 03:17:30;;;;;;;16.90;7.77;;;25.90;72.60;;;;;;5045909;28;20266;-73
2024/02/26 03:19:57;;;;;;;11.53;7.33;;;26.00;73.60;;;;;;5048699;28;20264;-74
2024/02/26 03:22:25;;;;;;;15.10;6.80;;;26.30;72.70;;;;;;5048683;28;20270;-74
2024/02/26 03:24:53;;;;;;;12.00;7.13;;;26.30;72.40;;;;;;5048772;28;20241;-73
2024/02/26 03:27:21;;;;;;;19.23;7.60;;;26.30;72.70;;;;;;5044296;28;20224;-75
2024/02/26 03:29:48;;;;;;;13.97;7.13;;;26.40;72.80;;;;;;5026992;28;20206;-73
2024/02/26 03:32:16;;;;;;;15.77;6.33;;;26.30;72.80;;;;;;5049510;28;20235;-72
2024/02/26 03:34:43;;;;;;;11.47;6.43;;;26.10;73.10;;;;;;5047736;28;20199;-76
2024/02/26 03:37:10;;;;;;;16.13;6.70;;;26.00;74.50;;;;;;5047277;28;20180;-74
2024/02/26 03:39:38;;;;;;;16.17;6.60;;;25.80;74.80;;;;;;5045489;28;20204;-76
2024/02/26 03:42:06;;;;;;;20.60;7.17;;;25.70;75.10;;;;;;5049102;28;20688;-75
2024/02/26 03:44:35;;;;;;;12.30;6.20;;;25.70;75.30;;;;;;5043052;28;20588;-75
2024/02/26 03:47:02;;;;;;;10.47;6.20;;;25.80;75.30;;;;;;5047420;28;20215;-75
2024/02/26 03:49:29;;;;;;;12.73;6.10;;;25.90;75.60;;;;;;5048805;28;20622;-73
2024/02/26 03:51:57;;;;;;;18.17;6.37;;;26.00;74.80;;;;;;5044305;28;20207;-77
2024/02/26 03:54:24;;;;;;;11.03;6.27;;;26.10;74.80;;;;;;5025048;28;20547;-72
2024/02/26 03:56:51;;;;;;;14.60;5.90;;;26.10;74.50;;;;;;5027035;28;20188;-76
2024/02/26 03:59:19;;;;;;;12.63;5.73;;;26.30;74.50;;;;;;5051075;28;20188;-72
2024/02/26 04:01:47;;;;;;;14.07;5.93;;;26.50;73.60;;;;;;5048254;28;20196;-73
2024/02/26 04:04:14;;;;;;;11.73;5.70;;;26.50;73.70;;;;;;5046394;28;20200;-74
2024/02/26 04:06:48;;;;;;;11.87;6.13;;;26.40;73.60;;;;;;5045336;28;20303;-74
2024/02/26 04:09:16;;;;;;;12.10;5.80;;;26.30;73.90;;;;;;5050562;28;20180;-75
2024/02/26 04:11:43;;;;;;;12.03;5.67;;;26.30;73.80;;;;;;5047806;28;20214;-74
2024/02/26 04:14:12;;;;;;;13.23;5.60;;;26.20;74.10;;;;;;5048206;28;20186;-75
2024/02/26 04:16:39;;;;;;;13.03;6.30;;;26.30;74.30;;;;;;5047137;28;20278;-76
2024/02/26 04:19:06;;;;;;;16.30;6.67;;;26.30;73.90;;;;;;5046841;28;20705;-75
2024/02/26 04:21:37;;;;;;;18.97;7.17;;;26.30;73.90;;;;;;5045728;28;20184;-75
2024/02/26 04:24:05;;;;;;;12.37;6.37;;;26.40;73.40;;;;;;5049703;28;20180;-73
2024/02/26 04:26:32;;;;;;;16.93;6.23;;;26.40;73.00;;;;;;5027200;28;20224;-73
2024/02/26 04:29:02;;;;;;;14.73;5.63;;;26.20;73.90;;;;;;5050252;28;20758;-75
2024/02/26 04:31:32;;;;;;;12.73;4.83;;;26.30;74.40;;;;;;5046440;28;20209;-74
2024/02/26 04:34:02;;;;;;;16.23;5.00;;;26.30;74.10;;;;;;5049886;28;20192;-75
2024/02/26 04:36:35;;;;;;;11.50;4.90;;;26.50;74.60;;;;;;5046212;28;20677;-76
2024/02/26 04:39:02;;;;;;;16.13;5.10;;;26.80;73.20;;;;;;5041698;28;20190;-72
2024/02/26 04:41:29;;;;;;;10.70;4.70;;;27.40;72.00;;;;;;5045124;28;20211;-72
2024/02/26 04:43:57;;;;;;;9.33;4.97;;;27.60;71.20;;;;;;5044788;28;20203;-73
2024/02/26 04:46:25;;;;;;;10.57;4.73;;;28.20;68.40;;;;;;5045463;28;20215;-72
2024/02/26 04:48:52;;;;;;;10.13;4.20;;;28.90;67.50;;;;;;5045289;28;20180;-72
2024/02/26 04:51:22;;;;;;;14.67;4.37;;;29.80;63.80;;;;;;5047230;28;20626;-75
2024/02/26 04:53:49;;;;;;;10.98;4.35;;;30.40;60.90;;;;;;5045800;28;20192;-71
2024/02/26 04:56:17;;;;;;;14.85;4.50;;;29.80;62.10;;;;;;5041797;28;20206;-79
2024/02/26 04:58:44;;;;;;;12.27;4.63;;;29.20;64.30;;;;;;5042923;28;20191;-78
2024/02/26 05:01:11;;;;;;;11.33;4.17;;;28.90;65.90;;;;;;5047834;28;20256;-76
2024/02/26 05:03:38;;;;;;;11.40;4.93;;;29.00;65.20;;;;;;5045612;28;20654;-78
2024/02/26 05:06:08;;;;;;;12.77;4.10;;;28.80;66.70;;;;;;5046881;28;20326;-76
2024/02/26 05:08:38;;;;;;;7.10;3.33;;;28.80;66.70;;;;;;5040870;28;20190;-74
2024/02/26 05:11:07;;;;;;;12.57;4.40;;;28.30;68.20;;;;;;5047136;28;20175;-77
2024/02/26 05:13:37;;;;;;;9.17;4.60;;;28.40;67.00;;;;;;5047200;28;20277;-73
2024/02/26 05:16:06;;;;;;;13.53;4.80;;;28.00;68.30;;;;;;5044660;28;20674;-75
2024/02/26 05:18:34;;;;;;;13.50;4.23;;;27.80;69.60;;;;;;5046751;28;20538;-78
2024/02/26 05:21:03;;;;;;;10.67;4.47;;;27.70;69.90;;;;;;5029086;28;20184;-76
2024/02/26 05:23:30;;;;;;;11.13;4.17;;;28.00;69.10;;;;;;5045742;28;20275;-73
2024/02/26 05:25:57;;;;;;;11.13;4.60;;;27.50;70.70;;;;;;5047206;28;20556;-74
2024/02/26 05:28:25;;;;;;;15.40;5.30;;;27.30;71.30;;;;;;5048053;28;20281;-75
2024/02/26 05:30:52;;;;;;;16.20;4.77;;;27.10;72.20;;;;;;5042630;28;20606;-76
2024/02/26 05:33:19;;;;;;;9.57;4.57;;;27.00;72.70;;;;;;5048261;28;20205;-76
2024/02/26 05:35:47;;;;;;;9.47;4.53;;;27.00;73.60;;;;;;5047654;28;20194;-76
2024/02/26 05:38:15;;;;;;;14.47;5.10;;;26.70;72.80;;;;;;5048240;28;20188;-74
2024/02/26 05:40:42;;;;;;;12.20;5.00;;;26.30;73.60;;;;;;5045252;28;20202;-75
2024/02/26 05:43:09;;;;;;;14.87;5.43;;;26.60;73.80;;;;;;5047751;28;20196;-74
2024/02/26 05:45:37;;;;;;;11.47;4.70;;;26.90;72.50;;;;;;5044995;28;20275;-78
2024/02/26 05:48:05;;;;;;;17.80;5.90;;;27.00;73.00;;;;;;5044764;28;20261;-77
2024/02/26 05:50:33;;;;;;;18.83;5.77;;;26.90;73.40;;;;;;5049784;28;20229;-75
2024/02/26 05:53:01;;;;;;;20.33;6.10;;;26.70;73.70;;;;;;5054582;28;20517;-74
2024/02/26 05:55:28;;;;;;;20.80;6.43;;;26.50;73.90;;;;;;5049757;28;20172;-74
2024/02/26 05:57:58;;;;;;;16.97;6.37;;;26.50;74.10;;;;;;5055037;28;20188;-75
2024/02/26 06:00:27;;;;;;;22.33;7.47;;;26.60;73.40;;;;;;5051375;28;20184;-73
2024/02/26 06:02:54;;;;;;;26.53;7.43;;;26.50;73.40;;;;;;5052163;28;20233;-73
2024/02/26 06:05:22;;;;;;;23.33;7.40;;;26.30;74.60;;;;;;5051940;28;20180;-75
2024/02/26 06:07:49;;;;;;;29.00;7.83;;;26.00;75.10;;;;;;5055742;28;20313;-78
2024/02/26 06:10:21;;;;;;;28.13;7.47;;;25.80;75.80;;;;;;5053439;28;20172;-77
2024/02/26 06:12:48;;;;;;;23.13;7.57;;;25.70;75.70;;;;;;5055364;28;20180;-77
2024/02/26 06:15:16;;;;;;;23.63;7.13;;;25.50;76.60;;;;;;5050934;28;20183;-77
2024/02/26 06:17:46;;;;;;;35.00;7.27;;;25.60;76.40;;;;;;5048194;28;20196;-75
2024/02/26 06:20:13;;;;;;;25.03;7.00;;;25.70;76.50;;;;;;5051979;28;20637;-75
2024/02/26 06:22:44;;;;;;;34.03;8.00;;;25.80;75.00;;;;;;5052739;28;20187;-75
2024/02/26 06:25:12;;;;;;;27.73;7.40;;;25.70;75.80;;;;;;5053894;28;20282;-77
2024/02/26 06:27:39;;;;;;;30.53;8.23;;;25.70;75.60;;;;;;5037071;28;20227;-73
2024/02/26 06:30:08;;;;;;;22.33;6.77;;;25.60;76.00;;;;;;5054734;28;20192;-74
2024/02/26 06:32:37;;;;;;;28.00;7.10;;;25.50;76.50;;;;;;5050739;28;20227;-74
2024/02/26 06:35:08;;;;;;;25.17;7.20;;;25.30;76.50;;;;;;5034223;28;20192;-74
2024/02/26 06:37:36;;;;;;;27.77;6.60;;;25.20;76.70;;;;;;5050992;28;20188;-74
2024/02/26 06:40:06;;;;;;;40.37;7.40;;;25.30;76.60;;;;;;5054651;28;20179;-73
2024/02/26 06:42:38;;;;;;;31.90;7.90;;;25.40;76.20;;;;;;5052504;28;20172;-73
2024/02/26 06:45:08;;;;;;;29.10;8.63;;;25.30;76.10;;;;;;5043046;28;20614;-74
2024/02/26 06:47:41;;;;;;;26.67;7.13;;;25.30;76.10;;;;;;5053168;28;20211;-74
2024/02/26 06:50:16;;;;;;;27.30;7.67;;;25.30;76.20;;;;;;5047856;28;20283;-72
2024/02/26 06:52:46;;;;;;;24.63;7.63;;;25.20;76.80;;;;;;5052698;28;20225;-71
2024/02/26 06:55:15;;;;;;;28.67;7.97;;;25.10;76.70;;;;;;5050288;28;20588;-73
2024/02/26 06:57:42;;;;;;;25.50;7.57;;;25.10;77.00;;;;;;5051761;28;20168;-72
2024/02/26 07:00:14;;;;;;;29.33;7.77;;;25.10;77.00;;;;;;5052273;28;20195;-76
2024/02/26 07:02:42;;;;;;;22.60;7.03;;;25.00;77.30;;;;;;5046024;28;20207;-77
2024/02/26 07:05:10;;;;;;;28.67;8.40;;;24.80;77.40;;;;;;5049769;28;20188;-75
2024/02/26 07:07:38;;;;;;;24.73;7.13;;;24.80;77.60;;;;;;5033822;28;20232;-73
2024/02/26 07:10:06;;;;;;;24.80;7.83;;;24.70;78.10;;;;;;5045629;28;20183;-75
2024/02/26 07:12:36;;;;;;;25.90;7.00;;;24.50;78.40;;;;;;5051635;28;21158;-72
2024/02/26 07:15:04;;;;;;;24.23;7.80;;;24.30;78.20;;;;;;5051078;28;20171;-74
2024/02/26 07:17:33;;;;;;;25.33;7.97;;;24.30;79.00;;;;;;5050988;28;20286;-74
2024/02/26 07:20:02;;;;;;;30.43;6.93;;;24.30;79.30;;;;;;5050344;28;20187;-75
2024/02/26 07:22:32;;;;;;;31.37;7.93;;;24.30;79.20;;;;;;5038445;28;20180;-75
2024/02/26 07:24:59;;;;;;;27.80;7.63;;;24.30;79.40;;;;;;5050468;28;20646;-74
2024/02/26 07:27:27;;;;;;;21.87;6.73;;;24.20;79.50;;;;;;5050061;28;20218;-75
2024/02/26 07:29:54;;;;;;;28.47;8.00;;;24.10;79.30;;;;;;5048973;28;20611;-75
2024/02/26 07:32:22;;;;;;;23.53;7.13;;;24.10;79.50;;;;;;5043094;28;20199;-74
2024/02/26 07:34:50;;;;;;;23.17;6.60;;;24.10;79.10;;;;;;5051183;28;20723;-75
2024/02/26 07:37:18;;;;;;;28.00;6.83;;;24.00;78.90;;;;;;5045049;28;20264;-74
2024/02/26 07:39:45;;;;;;;27.03;6.60;;;24.00;79.20;;;;;;5047707;28;20179;-79
2024/02/26 07:42:12;;;;;;;22.53;5.97;;;24.00;79.30;;;;;;5044589;28;20192;-75
2024/02/26 07:44:42;;;;;;;24.00;6.10;;;23.90;79.30;;;;;;5040780;28;20184;-77
2024/02/26 07:47:11;;;;;;;18.27;5.20;;;23.90;79.50;;;;;;5042251;28;20238;-75
2024/02/26 07:49:38;;;;;;;23.23;5.93;;;23.90;79.40;;;;;;5043552;28;20642;-76
2024/02/26 07:52:07;;;;;;;30.63;6.20;;;24.00;79.60;;;;;;5046273;28;20176;-76
2024/02/26 07:54:34;;;;;;;21.90;5.43;;;24.00;79.60;;;;;;5043642;28;20188;-77
2024/02/26 07:57:09;;;;;;;29.13;6.93;;;24.10;79.30;;;;;;5047624;28;20284;-76
2024/02/26 07:59:36;;;;;;;22.50;5.90;;;24.10;79.30;;;;;;5045654;28;20218;-78
2024/02/26 08:02:05;;;;;;;23.87;6.33;;;24.00;79.10;;;;;;5045442;28;20191;-76
2024/02/26 08:04:33;;;;;;;17.27;5.67;;;24.00;79.20;;;;;;5042580;28;20207;-75
2024/02/26 08:07:01;;;;;;;20.67;6.13;;;23.90;79.30;;;;;;5049933;28;20767;-75
2024/02/26 08:09:31;;;;;;;28.47;6.30;;;23.90;79.60;;;;;;5045223;28;20187;-77
2024/02/26 08:11:58;;;;;;;31.13;6.37;;;23.90;79.60;;;;;;5049379;28;20210;-73
2024/02/26 08:14:25;;;;;;;21.57;6.40;;;23.90;79.50;;;;;;5043416;28;20322;-75
2024/02/26 08:16:55;;;;;;;29.83;5.83;;;23.80;79.20;;;;;;5045711;28;20180;-75
2024/02/26 08:19:28;;;;;;;24.97;6.60;;;23.80;79.30;;;;;;5043062;28;20215;-76
2024/02/26 08:21:56;;;;;;;23.83;5.63;;;23.70;79.20;;;;;;5043204;28;20630;-76
2024/02/26 08:24:24;;;;;;;26.27;5.87;;;23.70;79.20;;;;;;5043427;28;20187;-75
2024/02/26 08:26:52;;;;;;;20.67;5.97;;;23.70;79.20;;;;;;5045324;28;20582;-75
2024/02/26 08:29:23;;;;;;;24.10;5.97;;;23.60;79.70;;;;;;5046917;28;20224;-76
2024/02/26 08:31:50;;;;;;;24.47;6.23;;;23.60;79.70;;;;;;5043253;28;20176;-75
2024/02/26 08:34:17;;;;;;;19.57;5.97;;;23.60;79.80;;;;;;5045105;28;20167;-79
2024/02/26 08:36:45;;;;;;;25.40;6.37;;;23.50;79.70;;;;;;5041304;28;20257;-76
2024/02/26 08:39:13;;;;;;;20.63;5.50;;;23.60;79.80;;;;;;5042785;28;20650;-77
2024/02/26 08:41:42;;;;;;;25.83;5.83;;;23.50;79.50;;;;;;5045780;28;20538;-72
2024/02/26 08:44:11;;;;;;;23.73;6.33;;;23.50;79.50;;;;;;5045424;28;20328;-75
2024/02/26 08:46:39;;;;;;;27.27;5.70;;;23.50;79.10;;;;;;5042498;28;20663;-75
2024/02/26 08:49:12;;;;;;;18.03;5.83;;;23.50;79.10;;;;;;5045049;28;20196;-77
2024/02/26 08:51:46;;;;;;;22.90;6.50;;;23.50;79.10;;;;;;5041212;28;20274;-77
2024/02/26 08:54:16;;;;;;;24.93;6.23;;;23.50;79.00;;;;;;5046818;28;20215;-75
2024/02/26 08:56:45;;;;;;;24.73;5.60;;;23.50;78.80;;;;;;5046951;28;20188;-75
2024/02/26 08:59:12;;;;;;;23.93;6.17;;;23.50;78.90;;;;;;5030904;28;20542;-76
2024/02/26 09:01:40;;;;;;;22.90;5.73;;;23.50;79.20;;;;;;5048946;28;20345;-74
2024/02/26 09:04:07;;;;;;;21.13;5.50;;;23.60;79.30;;;;;;5046747;28;20192;-75
2024/02/26 09:06:34;;;;;;;19.20;4.90;;;23.50;79.20;;;;;;5047051;28;20235;-75
2024/02/26 09:09:03;;;;;;;30.67;6.50;;;23.40;79.10;;;;;;5048453;28;20177;-77
2024/02/26 09:11:31;;;;;;;18.40;5.00;;;23.40;78.90;;;;;;5038701;28;20235;-76
2024/02/26 09:14:01;;;;;;;18.93;5.80;;;23.40;78.80;;;;;;5028585;28;20208;-77
2024/02/26 09:16:31;;;;;;;20.57;5.30;;;23.40;78.70;;;;;;5045320;28;20207;-75
2024/02/26 09:18:58;;;;;;;18.87;5.70;;;23.40;78.60;;;;;;5039036;28;20180;-77
2024/02/26 09:21:26;;;;;;;27.73;5.20;;;23.40;78.50;;;;;;5045040;28;20188;-78
2024/02/26 09:23:54;;;;;;;22.30;4.90;;;23.40;78.50;;;;;;5042887;28;20277;-77
2024/02/26 09:26:21;;;;;;;28.63;5.67;;;23.40;78.60;;;;;;5043669;28;20235;-75
2024/02/26 09:28:48;;;;;;;22.57;5.13;;;23.40;78.70;;;;;;5041610;28;20220;-74
2024/02/26 09:31:18;;;;;;;24.57;5.57;;;23.40;78.70;;;;;;5041124;28;20188;-74
2024/02/26 09:33:46;;;;;;;22.10;5.03;;;23.30;78.70;;;;;;5043792;28;20190;-75
2024/02/26 09:36:13;;;;;;;19.03;4.23;;;23.30;78.50;;;;;;5044621;28;20271;-76
2024/02/26 09:38:41;;;;;;;24.33;5.33;;;23.30;78.50;;;;;;5043011;28;20180;-75
2024/02/26 09:41:18;;;;;;;26.57;5.33;;;23.30;78.50;;;;;;5044912;28;20191;-76
2024/02/26 09:43:49;;;;;;;24.67;5.00;;;23.30;78.50;;;;;;5044862;28;20176;-74
2024/02/26 09:46:19;;;;;;;21.10;5.10;;;23.30;78.70;;;;;;5045134;28;20211;-74
2024/02/26 09:48:50;;;;;;;17.07;4.13;;;23.30;78.80;;;;;;5046010;28;20424;-75
2024/02/26 09:51:18;;;;;;;24.30;5.03;;;23.20;78.90;;;;;;5046360;28;20183;-74
2024/02/26 09:53:54;;;;;;;20.97;4.83;;;23.30;78.70;;;;;;5043347;28;20638;-75
2024/02/26 09:56:25;;;;;;;27.27;5.97;;;23.30;78.90;;;;;;5042904;28;20211;-77
2024/02/26 09:58:57;;;;;;;24.60;5.50;;;23.30;79.00;;;;;;5043450;28;20203;-78
2024/02/26 10:01:25;;;;;;;21.97;4.93;;;23.30;79.10;;;;;;5045273;28;20253;-77
2024/02/26 10:03:59;;;;;;;23.10;5.50;;;23.30;79.40;;;;;;5032633;28;20172;-78
2024/02/26 10:06:31;;;;;;;18.13;5.00;;;23.30;79.50;;;;;;5041610;28;20354;-77
2024/02/26 10:09:01;;;;;;;25.37;5.50;;;23.30;79.40;;;;;;5023785;28;20201;-77
2024/02/26 10:11:29;;;;;;;21.83;5.43;;;23.30;79.20;;;;;;5042148;28;20180;-75
2024/02/26 10:14:00;;;;;;;16.93;5.23;;;23.30;79.00;;;;;;5045836;28;20221;-78
2024/02/26 10:16:28;;;;;;;22.40;4.70;;;23.30;79.00;;;;;;5041580;28;20181;-78
2024/02/26 10:18:55;;;;;;;22.63;5.00;;;23.30;78.80;;;;;;5042927;28;20172;-75
2024/02/26 10:21:23;;;;;;;23.43;5.60;;;23.30;78.50;;;;;;5041084;28;20638;-77
2024/02/26 10:23:54;;;;;;;20.50;5.07;;;23.20;78.50;;;;;;5041254;28;20192;-76
2024/02/26 10:26:21;;;;;;;19.77;5.53;;;23.20;78.50;;;;;;5029423;28;20220;-74
2024/02/26 10:28:49;;;;;;;18.70;5.03;;;23.20;78.50;;;;;;5037531;28;20604;-74
2024/02/26 10:31:23;;;;;;;20.50;4.90;;;23.20;78.50;;;;;;5046532;28;20202;-74
2024/02/26 10:33:57;;;;;;;20.70;4.73;;;23.20;78.60;;;;;;5044800;28;20184;-77
2024/02/26 10:36:26;;;;;;;20.07;5.00;;;23.20;78.70;;;;;;5038430;28;20191;-75
2024/02/26 10:38:56;;;;;;;22.37;5.17;;;23.20;78.70;;;;;;5046336;28;20176;-76
2024/02/26 10:41:24;;;;;;;20.90;5.17;;;23.20;78.70;;;;;;5046793;28;20197;-77
2024/02/26 10:43:52;;;;;;;21.90;5.40;;;23.20;78.90;;;;;;5050555;28;20642;-75
2024/02/26 10:46:25;;;;;;;20.57;4.63;;;23.20;78.70;;;;;;5031285;28;20273;-73
2024/02/26 10:48:54;;;;;;;21.20;5.67;;;23.20;78.50;;;;;;5044571;28;20242;-78
2024/02/26 10:51:31;;;;;;;17.33;4.87;;;23.20;78.40;;;;;;5050534;28;20184;-77
2024/02/26 10:54:01;;;;;;;15.30;4.00;;;23.20;78.50;;;;;;5038974;28;20317;-76
2024/02/26 10:56:30;;;;;;;18.07;4.83;;;23.20;78.60;;;;;;5048744;28;20188;-75
2024/02/26 10:58:57;;;;;;;18.80;4.70;;;23.20;78.80;;;;;;5042492;28;20187;-76
2024/02/26 11:01:29;;;;;;;20.40;4.50;;;23.30;78.90;;;;;;5032236;28;20241;-77
2024/02/26 11:03:57;;;;;;;13.33;5.13;;;23.20;78.80;;;;;;5045067;28;20191;-75
2024/02/26 11:06:26;;;;;;;20.10;5.50;;;23.20;78.80;;;;;;5044649;28;20298;-76
2024/02/26 11:08:54;;;;;;;16.47;4.73;;;23.20;78.60;;;;;;5043454;28;20240;-74
2024/02/26 11:11:24;;;;;;;17.37;4.87;;;23.20;78.50;;;;;;5043493;28;20181;-75
2024/02/26 11:13:54;;;;;;;13.67;4.73;;;23.20;78.50;;;;;;5044920;28;20293;-75
2024/02/26 11:16:26;;;;;;;18.93;4.40;;;23.10;78.60;;;;;;5041956;28;20267;-76
2024/02/26 11:18:56;;;;;;;21.30;5.13;;;23.10;78.80;;;;;;5048525;28;20649;-74
2024/02/26 11:21:29;;;;;;;21.90;5.30;;;23.10;79.10;;;;;;5029008;28;20638;-76
2024/02/26 11:24:10;;;;;;;26.07;5.47;;;23.10;79.30;;;;;;5045421;28;20180;-75
2024/02/26 11:26:47;;;;;;;19.93;4.90;;;23.10;79.40;;;;;;5039661;28;20231;-76
2024/02/26 11:29:21;;;;;;;21.10;5.20;;;23.10;79.60;;;;;;5047517;28;20228;-76
2024/02/26 11:31:49;;;;;;;25.80;5.60;;;23.10;79.70;;;;;;5046219;28;20234;-76
2024/02/26 11:34:17;;;;;;;23.03;5.23;;;23.10;79.80;;;;;;5045104;28;20191;-75
2024/02/26 11:36:44;;;;;;;29.00;6.00;;;23.00;80.10;;;;;;5046632;28;20226;-74
2024/02/26 11:39:15;;;;;;;24.50;6.00;;;23.00;80.20;;;;;;5048048;28;20191;-74
2024/02/26 11:41:42;;;;;;;24.17;4.83;;;23.00;80.40;;;;;;5050889;28;20258;-76
2024/02/26 11:44:11;;;;;;;21.00;5.73;;;23.00;80.50;;;;;;5044479;28;20954;-77
2024/02/26 11:46:44;;;;;;;18.37;5.30;;;23.00;80.20;;;;;;5032891;28;20262;-78
2024/02/26 11:49:30;;;;;;;19.80;4.73;;;22.90;80.30;;;;;;5041565;28;20733;-74
2024/02/26 11:52:03;;;;;;;22.20;5.50;;;22.90;80.40;;;;;;5051527;28;20263;-74
2024/02/26 11:54:50;;;;;;;24.47;5.87;;;22.90;80.40;;;;;;5044162;28;20191;-75
2024/02/26 11:57:40;;;;;;;16.57;5.17;;;22.80;80.20;;;;;;5050707;28;20278;-75
2024/02/26 12:00:08;;;;;;;20.83;5.30;;;22.80;80.10;;;;;;5028590;28;20180;-77
2024/02/26 12:02:45;;;;;;;32.23;6.83;;;22.80;80.20;;;;;;5041665;28;20180;-79
2024/02/26 12:05:28;;;;;;;20.30;5.13;;;22.80;80.00;;;;;;5040741;28;20185;-77
2024/02/26 12:08:00;;;;;;;14.83;4.20;;;22.80;80.20;;;;;;5043315;28;20669;-75
2024/02/26 12:10:28;;;;;;;17.80;4.97;;;22.80;80.10;;;;;;5043411;28;20173;-74
2024/02/26 12:13:02;;;;;;;19.60;4.37;;;22.80;80.00;;;;;;5043964;28;20303;-75
2024/02/26 12:15:44;;;;;;;25.70;4.80;;;22.80;80.00;;;;;;5045344;28;20186;-75
2024/02/26 12:18:24;;;;;;;19.60;4.57;;;22.80;79.60;;;;;;5029564;28;20326;-75
2024/02/26 12:21:04;;;;;;;22.87;4.57;;;22.80;79.20;;;;;;5045876;28;20184;-78
2024/02/26 12:23:31;;;;;;;25.27;5.73;;;22.80;79.00;;;;;;5042797;28;20668;-76
2024/02/26 12:26:02;;;;;;;22.23;4.87;;;22.80;79.10;;;;;;5045409;28;20204;-78
2024/02/26 12:28:33;;;;;;;20.87;4.73;;;22.80;79.20;;;;;;5047109;28;20224;-76
2024/02/26 12:31:00;;;;;;;22.43;5.33;;;22.80;79.20;;;;;;5046346;28;20173;-76
2024/02/26 12:33:31;;;;;;;19.93;4.00;;;22.80;79.20;;;;;;5049194;28;20177;-78
2024/02/26 12:35:59;;;;;;;21.43;4.83;;;22.80;78.90;;;;;;5052121;28;20177;-75
2024/02/26 12:38:28;;;;;;;26.87;5.20;;;22.70;78.90;;;;;;5049935;28;20189;-75
2024/02/26 12:40:58;;;;;;;16.20;4.30;;;22.80;78.80;;;;;;5044798;28;20184;-75
2024/02/26 12:43:27;;;;;;;21.23;4.23;;;22.80;78.90;;;;;;5045695;28;20234;-76
2024/02/26 12:45:54;;;;;;;27.40;4.87;;;22.80;78.70;;;;;;5043490;28;20172;-77
2024/02/26 12:48:26;;;;;;;17.50;4.07;;;22.70;78.80;;;;;;5043920;28;20216;-76